createdAt,value
2018-08-28T00:02:19.349Z,5.97
2018-08-28T00:04:50.369Z,7.63
2018-08-28T00:07:20.500Z,6.13
2018-08-28T00:09:49.612Z,6.50
2018-08-28T00:12:18.719Z,5.67
2018-08-28T00:14:47.880Z,6.73
2018-08-28T00:17:17.109Z,5.83
2018-08-28T00:19:46.421Z,6.10
2018-08-28T00:22:15.737Z,7.10
2018-08-28T00:24:44.839Z,7.30
2018-08-28T00:27:13.923Z,6.30
2018-08-28T00:29:43.168Z,6.73
2018-08-28T00:32:12.904Z,6.67
2018-08-28T00:34:42.005Z,6.80
2018-08-28T00:37:11.092Z,7.10
2018-08-28T00:39:40.406Z,6.93
2018-08-28T00:42:10.429Z,7.10
2018-08-28T00:44:40.135Z,6.77
2018-08-28T00:47:09.282Z,6.33
2018-08-28T00:49:38.840Z,6.80
2018-08-28T00:52:07.924Z,7.27
2018-08-28T00:54:37.107Z,7.20
2018-08-28T00:57:06.324Z,6.50
2018-08-28T00:59:35.411Z,6.80
2018-08-28T01:02:04.540Z,6.57
2018-08-28T01:04:33.600Z,6.40
2018-08-28T01:07:02.724Z,6.20
2018-08-28T01:09:32.365Z,7.00
2018-08-28T01:12:01.458Z,7.10
2018-08-28T01:14:30.578Z,5.43
2018-08-28T01:16:59.673Z,6.47
2018-08-28T01:19:28.758Z,5.90
2018-08-28T01:21:57.848Z,5.57
2018-08-28T01:24:26.934Z,6.70
2018-08-28T01:26:56.120Z,7.20
2018-08-28T01:29:25.232Z,6.20
2018-08-28T01:31:54.612Z,6.27
2018-08-28T01:34:24.356Z,6.10
2018-08-28T01:36:53.478Z,6.20
2018-08-28T01:39:23.333Z,6.43
2018-08-28T01:41:53.017Z,6.63
2018-08-28T01:44:22.130Z,7.07
2018-08-28T01:46:51.285Z,6.53
2018-08-28T01:49:20.870Z,5.90
2018-08-28T01:51:50.628Z,6.53
2018-08-28T01:54:19.695Z,6.87
2018-08-28T01:56:48.800Z,6.50
2018-08-28T01:59:18.045Z,5.60
2018-08-28T02:01:48.069Z,5.87
2018-08-28T02:04:17.205Z,6.63
2018-08-28T02:06:46.360Z,7.20
2018-08-28T02:09:15.548Z,6.90
2018-08-28T02:11:44.630Z,6.73
2018-08-28T02:14:13.735Z,6.80
2018-08-28T02:16:42.843Z,6.43
2018-08-28T02:19:11.935Z,7.30
2018-08-28T02:21:41.043Z,6.63
2018-08-28T02:24:10.201Z,6.10
2018-08-28T02:26:39.369Z,6.07
2018-08-28T02:29:08.618Z,6.57
2018-08-28T02:31:38.366Z,5.67
2018-08-28T02:34:08.169Z,6.20
2018-08-28T02:36:37.309Z,6.80
2018-08-28T02:39:09.252Z,6.30
2018-08-28T02:41:39.035Z,6.60
2018-08-28T02:44:08.153Z,5.70
2018-08-28T02:46:37.682Z,6.60
2018-08-28T02:49:07.297Z,7.27
2018-08-28T02:51:37.684Z,6.00
2018-08-28T02:54:08.128Z,7.27
2018-08-28T02:56:37.216Z,6.03
2018-08-28T02:59:06.284Z,6.67
2018-08-28T03:01:35.433Z,6.90
2018-08-28T03:04:04.513Z,6.17
2018-08-28T03:06:33.675Z,7.27
2018-08-28T03:09:02.816Z,6.50
2018-08-28T03:11:32.460Z,6.97
2018-08-28T03:14:01.490Z,7.87
2018-08-28T03:16:30.575Z,6.30
2018-08-28T03:18:59.683Z,7.40
2018-08-28T03:21:29.292Z,7.03
2018-08-28T03:23:58.383Z,7.20
2018-08-28T03:26:30.534Z,7.53
2018-08-28T03:29:00.255Z,7.30
2018-08-28T03:31:29.361Z,7.90
2018-08-28T03:33:59.007Z,7.90
2018-08-28T03:36:28.736Z,8.73
2018-08-28T03:38:57.974Z,7.40
2018-08-28T03:41:27.067Z,7.93
2018-08-28T03:43:56.580Z,7.50
2018-08-28T03:46:25.889Z,7.50
2018-08-28T03:48:54.983Z,7.70
2018-08-28T03:51:24.179Z,7.80
2018-08-28T03:53:53.314Z,7.80
2018-08-28T03:56:22.400Z,7.27
2018-08-28T03:58:51.497Z,8.67
2018-08-28T04:01:21.157Z,7.80
2018-08-28T04:03:50.352Z,8.30
2018-08-28T04:06:19.510Z,8.43
2018-08-28T04:08:48.619Z,8.40
2018-08-28T04:11:17.733Z,8.50
2018-08-28T04:13:46.844Z,8.53
2018-08-28T04:16:15.971Z,8.50
2018-08-28T04:18:45.080Z,7.87
2018-08-28T04:21:14.173Z,9.87
2018-08-28T04:23:43.316Z,9.17
2018-08-28T04:26:12.395Z,9.07
2018-08-28T04:28:41.492Z,11.47
2018-08-28T04:31:11.213Z,10.40
2018-08-28T04:33:40.314Z,10.83
2018-08-28T04:36:09.396Z,8.40
2018-08-28T04:38:38.506Z,8.87
2018-08-28T04:41:07.609Z,9.57
2018-08-28T04:43:36.738Z,9.20
2018-08-28T04:46:05.892Z,8.40
2018-08-28T04:48:35.659Z,8.03
2018-08-28T04:51:04.715Z,8.87
2018-08-28T04:53:33.893Z,9.10
2018-08-28T04:56:03.039Z,10.30
2018-08-28T04:58:32.884Z,9.77
2018-08-28T05:01:02.567Z,8.90
2018-08-28T05:03:31.676Z,8.57
2018-08-28T05:06:00.772Z,8.87
2018-08-28T05:08:30.990Z,8.57
2018-08-28T05:11:00.079Z,8.47
2018-08-28T05:13:29.164Z,8.10
2018-08-28T05:15:58.343Z,9.23
2018-08-28T05:18:27.340Z,9.47
2018-08-28T05:20:56.429Z,8.00
2018-08-28T05:23:25.502Z,8.70
2018-08-28T05:25:54.585Z,9.40
2018-08-28T05:28:23.720Z,8.70
2018-08-28T05:30:52.868Z,8.40
2018-08-28T05:33:21.940Z,8.53
2018-08-28T05:35:51.021Z,9.90
2018-08-28T05:38:20.184Z,9.23
2018-08-28T05:40:49.324Z,9.30
2018-08-28T05:43:18.526Z,9.43
2018-08-28T05:45:47.611Z,8.50
2018-08-28T05:48:16.699Z,9.50
2018-08-28T05:50:46.380Z,9.33
2018-08-28T05:53:15.517Z,8.87
2018-08-28T05:55:44.595Z,9.80
2018-08-28T05:58:13.709Z,9.00
2018-08-28T06:00:42.850Z,8.87
2018-08-28T06:03:11.992Z,9.20
2018-08-28T06:05:41.077Z,9.10
2018-08-28T06:08:10.928Z,9.00
2018-08-28T06:10:40.464Z,10.80
2018-08-28T06:13:10.084Z,8.90
2018-08-28T06:15:39.874Z,10.73
2018-08-28T06:18:08.927Z,10.93
2018-08-28T06:20:38.833Z,9.90
2018-08-28T06:23:07.995Z,9.70
2018-08-28T06:25:37.032Z,9.80
2018-08-28T06:28:06.213Z,10.47
2018-08-28T06:30:35.305Z,9.47
2018-08-28T06:33:05.033Z,10.23
2018-08-28T06:35:34.182Z,10.97
2018-08-28T06:38:03.280Z,9.43
2018-08-28T06:40:32.432Z,8.83
2018-08-28T06:43:01.503Z,10.27
2018-08-28T06:45:30.609Z,10.20
2018-08-28T06:47:59.804Z,10.43
2018-08-28T06:50:28.887Z,8.90
2018-08-28T06:52:58.084Z,9.83
2018-08-28T06:55:27.537Z,10.43
2018-08-28T06:57:57.328Z,10.57
2018-08-28T07:00:26.455Z,9.07
2018-08-28T07:02:55.685Z,9.17
2018-08-28T07:05:25.344Z,10.80
2018-08-28T07:07:55.267Z,10.27
2018-08-28T07:10:24.460Z,8.27
2018-08-28T07:12:56.582Z,9.67
2018-08-28T07:15:25.759Z,9.60
2018-08-28T07:17:54.902Z,8.87
2018-08-28T07:20:23.993Z,10.03
2018-08-28T07:22:53.153Z,8.87
2018-08-28T07:25:22.761Z,7.93
2018-08-28T07:27:51.836Z,8.60
2018-08-28T07:30:21.647Z,9.40
2018-08-28T07:32:50.841Z,8.60
2018-08-28T07:35:19.977Z,8.77
2018-08-28T07:37:49.365Z,8.60
2018-08-28T07:40:19.536Z,8.37
2018-08-28T07:42:48.669Z,9.37
2018-08-28T07:45:17.929Z,8.67
2018-08-28T07:47:47.717Z,8.60
2018-08-28T07:50:17.734Z,9.00
2018-08-28T07:52:46.867Z,8.53
2018-08-28T07:55:15.997Z,8.77
2018-08-28T07:57:45.114Z,7.13
2018-08-28T08:00:14.206Z,8.33
2018-08-28T08:02:43.489Z,9.27
2018-08-28T08:05:12.587Z,8.43
2018-08-28T08:07:41.700Z,12.43
2018-08-28T08:10:10.909Z,8.60
2018-08-28T08:12:40.783Z,9.00
2018-08-28T08:15:10.127Z,8.50
2018-08-28T08:17:39.825Z,8.50
2018-08-28T08:20:08.943Z,8.50
2018-08-28T08:22:38.064Z,10.00
2018-08-28T08:25:07.325Z,8.50
2018-08-28T08:27:36.453Z,8.03
2018-08-28T08:30:05.722Z,8.47
2018-08-28T08:32:34.795Z,8.87
2018-08-28T08:35:03.872Z,8.20
2018-08-28T08:37:33.527Z,7.83
2018-08-28T08:40:02.897Z,7.97
2018-08-28T08:42:33.043Z,7.10
2018-08-28T08:45:02.816Z,8.00
2018-08-28T08:47:31.884Z,6.90
2018-08-28T08:50:00.961Z,6.57
2018-08-28T08:52:30.045Z,7.43
2018-08-28T08:54:59.419Z,6.50
2018-08-28T08:57:28.524Z,7.30
2018-08-28T08:59:57.629Z,5.70
2018-08-28T09:02:26.836Z,6.60
2018-08-28T09:04:56.605Z,6.13
2018-08-28T09:07:26.508Z,5.80
2018-08-28T09:09:55.689Z,5.03
2018-08-28T09:12:24.836Z,5.93
2018-08-28T09:14:53.929Z,6.10
2018-08-28T09:17:23.129Z,6.00
2018-08-28T09:19:52.273Z,5.00
2018-08-28T09:22:21.474Z,4.73
2018-08-28T09:24:50.586Z,5.70
2018-08-28T09:27:19.713Z,5.70
2018-08-28T09:29:48.899Z,5.23
2018-08-28T09:32:18.584Z,5.37
2018-08-28T09:34:47.632Z,5.33
2018-08-28T09:37:16.822Z,4.60
2018-08-28T09:39:46.129Z,3.90
2018-08-28T09:42:15.253Z,5.20
2018-08-28T09:44:44.868Z,5.77
2018-08-28T09:47:13.964Z,4.97
2018-08-28T09:49:43.416Z,5.00
2018-08-28T09:52:13.400Z,5.10
2018-08-28T09:54:42.505Z,5.40
2018-08-28T09:57:11.618Z,5.03
2018-08-28T09:59:41.471Z,4.30
2018-08-28T10:02:10.858Z,5.40
2018-08-28T10:04:40.040Z,5.40
2018-08-28T10:07:09.260Z,4.70
2018-08-28T10:09:38.391Z,4.57
2018-08-28T10:12:07.553Z,4.43
2018-08-28T10:14:36.781Z,4.80
2018-08-28T10:17:06.002Z,4.57
2018-08-28T10:19:35.180Z,4.40
2018-08-28T10:22:04.323Z,5.07
2018-08-28T10:24:33.487Z,4.50
2018-08-28T10:27:02.595Z,4.23
2018-08-28T10:29:31.713Z,4.60
2018-08-28T10:32:01.634Z,4.90
2018-08-28T10:34:30.849Z,4.63
2018-08-28T10:37:00.061Z,4.60
2018-08-28T10:39:29.239Z,5.20
2018-08-28T10:41:58.345Z,4.60
2018-08-28T10:44:27.793Z,4.53
2018-08-28T10:46:57.158Z,5.33
2018-08-28T10:49:26.243Z,5.10
2018-08-28T10:51:55.451Z,5.53
2018-08-28T10:54:24.542Z,4.90
2018-08-28T10:56:53.748Z,4.70
2018-08-28T10:59:22.867Z,3.90
2018-08-28T11:01:52.232Z,4.20
2018-08-28T11:04:21.510Z,4.30
2018-08-28T11:06:50.729Z,4.37
2018-08-28T11:09:19.863Z,4.50
2018-08-28T11:11:49.840Z,5.00
2018-08-28T11:14:19.088Z,4.07
2018-08-28T11:16:48.952Z,5.20
2018-08-28T11:19:18.052Z,4.80
2018-08-28T11:21:47.247Z,5.00
2018-08-28T11:24:16.344Z,5.23
2018-08-28T11:26:45.656Z,5.20
2018-08-28T11:29:14.845Z,5.60
2018-08-28T11:31:44.042Z,5.37
2018-08-28T11:34:13.161Z,6.40
2018-08-28T11:36:42.308Z,5.07
2018-08-28T11:39:11.401Z,5.37
2018-08-28T11:41:41.044Z,6.07
2018-08-28T11:44:10.244Z,5.10
2018-08-28T11:46:39.404Z,5.47
2018-08-28T11:49:08.639Z,5.50
2018-08-28T11:51:41.356Z,5.50
2018-08-28T11:54:10.435Z,6.23
2018-08-28T11:56:43.316Z,6.23
2018-08-28T11:59:13.340Z,5.80
2018-08-28T12:01:43.334Z,6.07
2018-08-28T12:04:12.688Z,5.27
2018-08-28T12:06:42.434Z,4.80
2018-08-28T12:09:12.192Z,5.40
2018-08-28T12:11:41.373Z,6.00
2018-08-28T12:14:10.503Z,6.37
2018-08-28T12:16:39.768Z,5.87
2018-08-28T12:19:09.727Z,5.80
2018-08-28T12:21:39.002Z,5.60
2018-08-28T12:24:08.256Z,5.50
2018-08-28T12:26:37.859Z,5.80
2018-08-28T12:29:06.932Z,5.40
2018-08-28T12:31:36.135Z,5.80
2018-08-28T12:34:06.442Z,5.43
2018-08-28T12:36:35.704Z,4.80
2018-08-28T12:39:05.760Z,5.60
2018-08-28T12:41:35.003Z,5.60
2018-08-28T12:44:04.960Z,5.20
2018-08-28T12:46:34.052Z,5.40
2018-08-28T12:49:03.313Z,5.53
2018-08-28T12:51:32.495Z,5.00
2018-08-28T12:54:01.562Z,5.87
2018-08-28T12:56:30.794Z,4.47
2018-08-28T12:58:59.928Z,5.70
2018-08-28T13:01:29.418Z,5.67
2018-08-28T13:03:59.861Z,5.90
2018-08-28T13:06:29.481Z,5.53
2018-08-28T13:08:58.716Z,5.30
2018-08-28T13:11:28.153Z,5.80
2018-08-28T13:13:57.500Z,5.20
2018-08-28T13:16:26.605Z,4.97
2018-08-28T13:18:59.360Z,5.87
2018-08-28T13:21:28.455Z,5.20
2018-08-28T13:23:57.608Z,6.10
2018-08-28T13:26:27.112Z,5.73
2018-08-28T13:28:56.434Z,5.40
2018-08-28T13:31:25.514Z,5.30
2018-08-28T13:33:54.815Z,5.40
2018-08-28T13:36:23.975Z,5.23
2018-08-28T13:38:53.176Z,5.27
2018-08-28T13:41:22.286Z,5.13
2018-08-28T13:43:51.484Z,5.10
2018-08-28T13:46:21.325Z,5.53
2018-08-28T13:48:51.096Z,5.33
2018-08-28T13:51:20.360Z,5.40
2018-08-28T13:53:50.306Z,6.00
2018-08-28T13:56:19.312Z,5.40
2018-08-28T13:58:48.512Z,5.20
2018-08-28T14:01:17.800Z,5.47
2018-08-28T14:03:47.143Z,6.40
2018-08-28T14:06:16.970Z,5.80
2018-08-28T14:08:46.142Z,6.30
2018-08-28T14:11:15.416Z,5.53
2018-08-28T14:13:45.261Z,5.77
2018-08-28T14:16:14.419Z,4.90
2018-08-28T14:18:43.582Z,5.77
2018-08-28T14:21:12.772Z,5.60
2018-08-28T14:23:41.876Z,4.93
2018-08-28T14:26:11.038Z,5.53
2018-08-28T14:28:40.400Z,5.50
2018-08-28T14:31:09.673Z,5.30
2018-08-28T14:33:38.935Z,5.27
2018-08-28T14:36:08.061Z,5.00
2018-08-28T14:38:37.226Z,5.37
2018-08-28T14:41:06.451Z,4.90
2018-08-28T14:43:35.664Z,5.37
2018-08-28T14:46:04.790Z,5.27
2018-08-28T14:48:33.897Z,5.30
2018-08-28T14:51:03.105Z,5.37
2018-08-28T14:53:32.272Z,4.80
2018-08-28T14:56:02.125Z,5.50
2018-08-28T14:58:31.321Z,5.17
2018-08-28T15:01:01.238Z,5.03
2018-08-28T15:03:30.380Z,5.60
2018-08-28T15:05:59.572Z,5.23
2018-08-28T15:08:29.105Z,4.87
2018-08-28T15:10:58.324Z,5.90
2018-08-28T15:13:27.477Z,4.50
2018-08-28T15:15:56.669Z,5.00
2018-08-28T15:18:26.589Z,5.80
2018-08-28T15:20:55.914Z,5.00
2018-08-28T15:23:24.982Z,5.30
2018-08-28T15:25:54.167Z,6.13
2018-08-28T15:28:23.377Z,5.20
2018-08-28T15:30:52.805Z,5.03
2018-08-28T15:33:22.047Z,5.47
2018-08-28T15:35:51.188Z,5.33
2018-08-28T15:38:20.268Z,5.40
2018-08-28T15:40:49.579Z,4.90
2018-08-28T15:43:18.689Z,4.87
2018-08-28T15:45:48.756Z,5.07
2018-08-28T15:48:18.083Z,5.13
2018-08-28T15:50:47.304Z,5.70
2018-08-28T15:53:16.482Z,4.47
2018-08-28T15:55:45.597Z,4.83
2018-08-28T15:58:14.794Z,5.00
2018-08-28T16:00:43.951Z,4.67
2018-08-28T16:03:13.284Z,5.50
2018-08-28T16:05:42.501Z,5.40
2018-08-28T16:08:11.651Z,5.07
2018-08-28T16:10:40.876Z,5.43
2018-08-28T16:13:10.135Z,5.40
2018-08-28T16:15:39.776Z,5.30
2018-08-28T16:18:09.231Z,4.70
2018-08-28T16:20:38.471Z,5.00
2018-08-28T16:23:10.245Z,4.50
2018-08-28T16:25:39.446Z,5.77
2018-08-28T16:28:08.677Z,4.60
2018-08-28T16:30:38.100Z,5.07
2018-08-28T16:33:09.002Z,5.40
2018-08-28T16:35:38.327Z,4.80
2018-08-28T16:38:07.516Z,5.10
2018-08-28T16:40:36.801Z,4.87
2018-08-28T16:43:06.425Z,5.00
2018-08-28T16:45:35.555Z,4.63
2018-08-28T16:48:05.251Z,4.37
2018-08-28T16:50:34.545Z,4.73
2018-08-28T16:53:03.665Z,4.50
2018-08-28T16:55:32.837Z,4.80
2018-08-28T16:58:02.669Z,5.60
2018-08-28T17:00:31.841Z,5.27
2018-08-28T17:03:01.104Z,5.30
2018-08-28T17:05:30.261Z,4.50
2018-08-28T17:08:00.209Z,4.80
2018-08-28T17:10:29.456Z,5.07
2018-08-28T17:12:58.647Z,4.60
2018-08-28T17:15:27.780Z,4.70
2018-08-28T17:17:58.016Z,5.10
2018-08-28T17:20:27.757Z,4.80
2018-08-28T17:22:56.981Z,4.93
2018-08-28T17:25:26.221Z,5.17
2018-08-28T17:27:56.320Z,5.50
2018-08-28T17:30:26.379Z,5.17
2018-08-28T17:32:56.242Z,5.23
2018-08-28T17:35:25.979Z,4.73
2018-08-28T17:37:55.373Z,4.90
2018-08-28T17:40:24.689Z,4.40
2018-08-28T17:42:53.791Z,5.30
2018-08-28T17:45:22.941Z,5.40
2018-08-28T17:47:52.685Z,6.00
2018-08-28T17:50:22.001Z,5.20
2018-08-28T17:52:51.416Z,5.97
2018-08-28T17:55:20.797Z,5.40
2018-08-28T17:57:49.936Z,5.10
2018-08-28T18:00:19.149Z,6.07
2018-08-28T18:02:49.074Z,6.10
2018-08-28T18:05:18.257Z,6.53
2018-08-28T18:07:47.565Z,5.83
2018-08-28T18:10:18.436Z,5.60
2018-08-28T18:12:49.315Z,5.77
2018-08-28T18:15:19.297Z,6.60
2018-08-28T18:17:48.504Z,5.80
2018-08-28T18:20:17.839Z,5.80
2018-08-28T18:22:47.111Z,6.37
2018-08-28T18:25:16.354Z,6.47
2018-08-28T18:27:45.586Z,5.97
2018-08-28T18:30:15.577Z,6.13
2018-08-28T18:32:45.321Z,6.03
2018-08-28T18:35:15.451Z,6.23
2018-08-28T18:37:45.538Z,6.60
2018-08-28T18:40:14.910Z,6.53
2018-08-28T18:42:44.730Z,6.30
2018-08-28T18:45:14.727Z,6.50
2018-08-28T18:47:43.950Z,6.20
2018-08-28T18:50:13.276Z,6.97
2018-08-28T18:52:42.516Z,7.77
2018-08-28T18:55:12.353Z,6.30
2018-08-28T18:57:41.667Z,7.47
2018-08-28T19:00:11.579Z,7.10
2018-08-28T19:02:40.946Z,6.20
2018-08-28T19:05:10.268Z,6.43
2018-08-28T19:07:39.944Z,7.00
2018-08-28T19:10:09.447Z,6.60
2018-08-28T19:12:38.657Z,7.20
2018-08-28T19:15:08.574Z,6.90
2018-08-28T19:17:37.878Z,7.77
2018-08-28T19:20:07.676Z,7.27
2018-08-28T19:22:36.997Z,6.13
2018-08-28T19:25:06.296Z,7.10
2018-08-28T19:27:36.160Z,6.40
2018-08-28T19:30:05.738Z,7.50
2018-08-28T19:32:34.907Z,7.27
2018-08-28T19:35:04.313Z,6.90
2018-08-28T19:37:35.507Z,6.70
2018-08-28T19:40:04.853Z,6.77
2018-08-28T19:42:34.007Z,7.67
2018-08-28T19:45:03.197Z,6.73
2018-08-28T19:47:32.519Z,6.50
2018-08-28T19:50:01.850Z,6.80
2018-08-28T19:52:31.463Z,7.00
2018-08-28T19:55:00.748Z,7.57
2018-08-28T19:57:30.182Z,5.93
2018-08-28T19:59:59.447Z,7.23
2018-08-28T20:02:28.635Z,7.17
2018-08-28T20:04:57.921Z,6.73
2018-08-28T20:07:27.646Z,7.03
2018-08-28T20:09:57.037Z,6.27
2018-08-28T20:12:26.222Z,7.47
2018-08-28T20:14:55.512Z,8.40
2018-08-28T20:17:26.729Z,8.50
2018-08-28T20:19:55.968Z,18.47
2018-08-28T20:22:25.205Z,8.27
2018-08-28T20:24:55.089Z,7.60
2018-08-28T20:27:24.305Z,8.00
2018-08-28T20:29:54.191Z,7.50
2018-08-28T20:32:23.401Z,8.70
2018-08-28T20:34:52.677Z,8.27
2018-08-28T20:37:21.883Z,7.80
2018-08-28T20:39:51.091Z,8.13
2018-08-28T20:42:20.382Z,8.73
2018-08-28T20:44:50.314Z,9.60
2018-08-28T20:47:19.472Z,8.03
2018-08-28T20:49:48.759Z,9.17
2018-08-28T20:52:17.901Z,9.00
2018-08-28T20:54:47.096Z,10.47
2018-08-28T20:57:16.989Z,10.00
2018-08-28T20:59:46.862Z,8.67
2018-08-28T21:02:16.732Z,9.40
2018-08-28T21:04:46.882Z,9.23
2018-08-28T21:07:16.360Z,9.93
2018-08-28T21:09:45.817Z,9.67
2018-08-28T21:12:15.002Z,9.50
2018-08-28T21:14:44.233Z,10.23
2018-08-28T21:17:13.530Z,9.80
2018-08-28T21:19:43.399Z,10.43
2018-08-28T21:22:12.498Z,10.30
2018-08-28T21:24:42.234Z,9.43
2018-08-28T21:27:11.401Z,9.60
2018-08-28T21:29:40.604Z,10.53
2018-08-28T21:32:09.909Z,10.40
2018-08-28T21:34:39.296Z,9.97
2018-08-28T21:37:08.477Z,10.27
2018-08-28T21:39:37.697Z,10.63
2018-08-28T21:42:06.966Z,11.60
2018-08-28T21:44:36.147Z,11.10
2018-08-28T21:47:05.271Z,11.40
2018-08-28T21:49:34.529Z,11.40
2018-08-28T21:52:03.647Z,10.83
2018-08-28T21:54:32.916Z,11.57
2018-08-28T21:57:02.044Z,12.30
2018-08-28T21:59:31.834Z,13.57
2018-08-28T22:02:01.208Z,12.90
2018-08-28T22:04:30.347Z,12.63
2018-08-28T22:07:04.773Z,12.37
2018-08-28T22:09:33.899Z,11.63
2018-08-28T22:12:03.152Z,12.27
2018-08-28T22:14:32.494Z,12.80
2018-08-28T22:17:02.408Z,13.17
2018-08-28T22:19:31.586Z,11.63
2018-08-28T22:22:01.659Z,12.30
2018-08-28T22:24:30.876Z,13.17
2018-08-28T22:27:00.019Z,11.70
2018-08-28T22:29:29.137Z,11.77
2018-08-28T22:31:58.266Z,12.90
2018-08-28T22:34:27.486Z,12.50
2018-08-28T22:36:56.630Z,13.80
2018-08-28T22:39:26.566Z,13.20
2018-08-28T22:41:56.734Z,12.10
2018-08-28T22:44:25.872Z,11.97
2018-08-28T22:46:55.069Z,12.63
2018-08-28T22:49:24.278Z,12.07
2018-08-28T22:51:53.488Z,12.07
2018-08-28T22:54:23.170Z,12.10
2018-08-28T22:56:52.345Z,12.13
2018-08-28T22:59:21.472Z,11.40
2018-08-28T23:01:50.687Z,11.50
2018-08-28T23:04:19.822Z,11.60
2018-08-28T23:06:48.988Z,11.50
2018-08-28T23:09:18.088Z,11.93
2018-08-28T23:11:47.212Z,11.50
2018-08-28T23:14:16.304Z,11.20
2018-08-28T23:16:45.414Z,11.57
2018-08-28T23:19:14.568Z,10.50
2018-08-28T23:21:43.673Z,11.60
2018-08-28T23:24:13.248Z,10.50
2018-08-28T23:26:42.417Z,9.80
2018-08-28T23:29:11.584Z,11.10
2018-08-28T23:31:40.672Z,13.03
2018-08-28T23:34:09.821Z,12.30
2018-08-28T23:36:39.015Z,10.80
2018-08-28T23:39:08.408Z,11.33
2018-08-28T23:41:37.505Z,10.83
2018-08-28T23:44:06.776Z,10.00
2018-08-28T23:46:35.980Z,9.97
2018-08-28T23:49:05.340Z,10.00
2018-08-28T23:51:34.448Z,9.90
2018-08-28T23:54:03.575Z,9.70
2018-08-28T23:56:32.742Z,10.87
2018-08-28T23:59:01.928Z,10.47
